Artemis — SWZE — position and weather

sailwx.info

Track history (hours):
 
Tides and Currents Weather Stations Pressure Air Temp Water Temp Dewpoint Dewpoint Depression Visibility Wind Speed Wind Dir Waves Ship Positions

Artemis

Last reported at 2015-Mar-03 07:33 UTC. Time now 2015-Mar-03 09:02 UTC.
Position N 37°06' E 024°60'.

Length 89 m.

MMSI: 237026300.

Date/timePositionNaut miles runAvg speedWind from/ knotsBaromVisibWave heightAir tempDewpointWater temp
2015-Mar-03 07:33N 37°06' E 024°60'6 5.2
2015-Mar-03 06:27N 37°09' E 025°06'1314.8
2015-Mar-03 05:33N 37°22' E 024°60'6 5.7
2015-Mar-03 04:34N 37°27' E 024°57'0 0.0
2015-Mar-03 03:33N 37°27' E 024°57'0 0.0
2015-Mar-03 02:33N 37°27' E 024°57'0 0.0
2015-Mar-03 01:31N 37°27' E 024°57'0 0.0
2015-Mar-03 00:31N 37°27' E 024°57'0 0.0
2015-Mar-02 23:33N 37°27' E 024°57'0 0.0
2015-Mar-02 22:33N 37°27' E 024°57'0 0.0
2015-Mar-02 21:26N 37°27' E 024°57'0 0.0
2015-Mar-02 20:33N 37°27' E 024°57'8 8.4
2015-Mar-02 19:34N 37°31' E 024°48'3 0.2
2015-Mar-02 06:08N 37°30' E 024°44'1014.4
2015-Mar-02 05:27N 37°30' E 024°56'4 3.8
2015-Mar-02 04:30N 37°27' E 024°57'0 0.0
2015-Mar-02 03:32N 37°27' E 024°57'0 0.0
2015-Mar-02 02:25N 37°27' E 024°57'0 0.0
2015-Mar-02 01:32N 37°27' E 024°57'0 0.0
2015-Mar-02 00:33N 37°27' E 024°57'0 0.0
2015-Mar-01 23:33N 37°27' E 024°57'0 0.0
2015-Mar-01 22:28N 37°27' E 024°57'0 0.0
2015-Mar-01 21:32N 37°27' E 024°57'0 0.0
2015-Mar-01 20:33N 37°27' E 024°57'0 0.0
2015-Mar-01 19:33N 37°27' E 024°57'2311.7
2015-Mar-01 17:32N 37°05' E 025°09'1713.2
2015-Mar-01 16:13N 37°07' E 024°47'9 1.0
2015-Mar-01 07:33N 37°06' E 024°58'7 6.0
2015-Mar-01 06:27N 37°09' E 025°06'1614.8
2015-Mar-01 05:22N 37°24' E 024°59'3 3.6
2015-Mar-01 04:33N 37°27' E 024°57'0 0.0
2015-Mar-01 03:30N 37°27' E 024°57'0 0.0
2015-Mar-01 02:28N 37°27' E 024°57'0 0.0
2015-Mar-01 01:33N 37°27' E 024°57'0 0.0
2015-Mar-01 00:28N 37°27' E 024°57'0 0.0
2015-Feb-28 23:31N 37°27' E 024°57'0 0.0
2015-Feb-28 22:33N 37°27' E 024°57'0 0.0
2015-Feb-28 21:33N 37°27' E 024°57'0 0.0
2015-Feb-28 20:33N 37°27' E 024°57'0 0.0
2015-Feb-28 19:33N 37°27' E 024°57'0 0.0
2015-Feb-28 18:33N 37°27' E 024°57'0 0.0
2015-Feb-28 17:32N 37°27' E 024°57'0 0.0
2015-Feb-28 16:33N 37°27' E 024°57'0 0.0
2015-Feb-28 15:33N 37°27' E 024°57'1511.3
2015-Feb-28 14:15N 37°13' E 025°04'8 7.7
2015-Feb-28 13:16N 37°06' E 025°08'913.1
2015-Feb-28 12:33N 37°09' E 025°19'8 7.6
2015-Feb-28 11:34N 37°01' E 025°18'4 0.2
2015-Feb-27 14:33N 37°05' E 025°19'6 6.2
2015-Feb-27 13:33N 37°10' E 025°15'7 6.6
2015-Feb-27 12:29N 37°07' E 025°07'1313.9
2015-Feb-27 11:33N 37°19' E 025°01'9 9.1
2015-Feb-27 10:32N 37°28' E 024°57'40 8.1
2015-Feb-27 05:33N 37°38' E 024°08'35 2.0
2015-Feb-26 11:33N 37°31' E 024°52'6 5.6
2015-Feb-26 10:29N 37°26' E 024°57'8 8.8
2015-Feb-26 09:33N 37°19' E 024°52'1 0.0
2015-Feb-25 13:33N 37°19' E 024°51'9 8.6
2015-Feb-25 12:32N 37°27' E 024°57'0 0.0
2015-Feb-25 11:33N 37°27' E 024°57'3 3.0
2015-Feb-25 10:33N 37°28' E 024°60'7 7.2
2015-Feb-25 09:33N 37°33' E 025°06'10 3.0
2015-Feb-25 06:19N 37°39' E 024°57'1215.1
2015-Feb-25 05:33N 37°32' E 025°09'1111.1
2015-Feb-25 04:33N 37°27' E 024°57'0 0.0
2015-Feb-25 03:32N 37°27' E 024°57'0 0.0
2015-Feb-25 02:32N 37°27' E 024°57'0 0.0
2015-Feb-25 01:33N 37°27' E 024°57'0 0.0
2015-Feb-25 00:31N 37°27' E 024°57'0 0.0
2015-Feb-24 23:33N 37°27' E 024°57'1611.0
2015-Feb-24 22:06N 37°12' E 025°05'6 6.9
2015-Feb-24 21:11N 37°06' E 025°07'914.7
2015-Feb-24 20:32N 37°06' E 024°55'2 0.2
2015-Feb-24 07:34N 37°06' E 024°57'7 7.1
2015-Feb-24 06:33N 37°08' E 025°06'1514.9
2015-Feb-24 05:34N 37°22' E 024°60'6 5.6
2015-Feb-24 04:33N 37°27' E 024°57'0 0.0
2015-Feb-24 03:32N 37°27' E 024°57'0 0.0
2015-Feb-24 02:32N 37°27' E 024°57'0 0.0
2015-Feb-24 01:32N 37°27' E 024°57'0 0.0
2015-Feb-24 00:32N 37°27' E 024°57'0 0.0
2015-Feb-23 23:31N 37°27' E 024°57'0 0.0
2015-Feb-23 22:30N 37°27' E 024°57'0 0.0
2015-Feb-23 21:33N 37°27' E 024°57'5 4.4
2015-Feb-23 20:19N 37°30' E 024°51'36 7.3
2015-Feb-23 15:22N 37°38' E 024°07'1 0.2
2015-Feb-23 10:26N 37°38' E 024°08'8 5.9
2015-Feb-23 09:05N 37°33' E 024°16'22 7.9
2015-Feb-23 06:14N 37°29' E 024°44'1113.5
2015-Feb-23 05:26N 37°29' E 024°57'3 3.1
2015-Feb-23 04:32N 37°27' E 024°57'0 0.0
2015-Feb-23 03:33N 37°27' E 024°57'0 0.0
2015-Feb-23 02:33N 37°27' E 024°57'0 0.0
2015-Feb-23 01:31N 37°27' E 024°57'0 0.0
2015-Feb-23 00:33N 37°27' E 024°57'0 0.0
2015-Feb-22 23:33N 37°27' E 024°57'0 0.0
2015-Feb-22 22:33N 37°27' E 024°57'0 0.0
2015-Feb-22 21:33N 37°27' E 024°57'0 0.0
2015-Feb-22 20:32N 37°27' E 024°57'0 0.0
2015-Feb-22 19:32N 37°27' E 024°57'1612.1
2015-Feb-22 18:15N 37°12' E 025°05'810.7
2015-Feb-22 17:30N 37°05' E 025°09'2013.9
2015-Feb-22 16:05N 37°06' E 024°44'11 1.3
2015-Feb-22 07:34N 37°06' E 024°58'7 6.7
2015-Feb-22 06:29N 37°09' E 025°06'1415.0
2015-Feb-22 05:33N 37°22' E 024°60'5 5.4
2015-Feb-22 04:33N 37°27' E 024°57'0 0.0
2015-Feb-22 03:32N 37°27' E 024°57'0 0.0
2015-Feb-22 02:33N 37°27' E 024°57'0 0.0
2015-Feb-22 01:29N 37°27' E 024°57'0 0.0
2015-Feb-22 00:33N 37°27' E 024°57'0 0.0
2015-Feb-21 23:32N 37°27' E 024°57'0 0.0
2015-Feb-21 22:27N 37°27' E 024°57'0 0.0
2015-Feb-21 21:24N 37°27' E 024°57'0 0.0
2015-Feb-21 20:33N 37°27' E 024°57'0 0.0
2015-Feb-21 19:32N 37°27' E 024°57'0 0.0
2015-Feb-21 18:33N 37°27' E 024°57'0 0.0
2015-Feb-21 17:26N 37°27' E 024°57'0 0.0
2015-Feb-21 16:33N 37°27' E 024°57'0 0.0
2015-Feb-21 15:33N 37°27' E 024°57'0 0.0
2015-Feb-21 14:32N 37°27' E 024°57'1813.3
2015-Feb-21 13:12N 37°10' E 025°05'4 5.8
2015-Feb-21 12:26N 37°06' E 025°08'1112.3
2015-Feb-21 11:33N 37°07' E 025°21'8 7.7
2015-Feb-21 10:33N 37°00' E 025°18'  
Track history (hours):
 
Tides and Currents Weather Stations Pressure Air Temp Water Temp Dewpoint Dewpoint Depression Visibility Wind Speed Wind Dir Waves Ship Positions

Artemis

Last reported at 2015-Mar-03 07:33 UTC. Time now 2015-Mar-03 09:02 UTC.
Position N 37°06' E 024°60'.

Length 89 m.

MMSI: 237026300.

Date/timePositionNaut miles runAvg speedWind from/ knotsBaromVisibWave heightAir tempDewpointWater temp
2015-Mar-03 07:33N 37°06' E 024°60'6 5.2
2015-Mar-03 06:27N 37°09' E 025°06'1314.8
2015-Mar-03 05:33N 37°22' E 024°60'6 5.7
2015-Mar-03 04:34N 37°27' E 024°57'0 0.0
2015-Mar-03 03:33N 37°27' E 024°57'0 0.0
2015-Mar-03 02:33N 37°27' E 024°57'0 0.0
2015-Mar-03 01:31N 37°27' E 024°57'0 0.0
2015-Mar-03 00:31N 37°27' E 024°57'0 0.0
2015-Mar-02 23:33N 37°27' E 024°57'0 0.0
2015-Mar-02 22:33N 37°27' E 024°57'0 0.0
2015-Mar-02 21:26N 37°27' E 024°57'0 0.0
2015-Mar-02 20:33N 37°27' E 024°57'8 8.4
2015-Mar-02 19:34N 37°31' E 024°48'3 0.2
2015-Mar-02 06:08N 37°30' E 024°44'1014.4
2015-Mar-02 05:27N 37°30' E 024°56'4 3.8
2015-Mar-02 04:30N 37°27' E 024°57'0 0.0
2015-Mar-02 03:32N 37°27' E 024°57'0 0.0
2015-Mar-02 02:25N 37°27' E 024°57'0 0.0
2015-Mar-02 01:32N 37°27' E 024°57'0 0.0
2015-Mar-02 00:33N 37°27' E 024°57'0 0.0
2015-Mar-01 23:33N 37°27' E 024°57'0 0.0
2015-Mar-01 22:28N 37°27' E 024°57'0 0.0
2015-Mar-01 21:32N 37°27' E 024°57'0 0.0
2015-Mar-01 20:33N 37°27' E 024°57'0 0.0
2015-Mar-01 19:33N 37°27' E 024°57'2311.7
2015-Mar-01 17:32N 37°05' E 025°09'1713.2
2015-Mar-01 16:13N 37°07' E 024°47'9 1.0
2015-Mar-01 07:33N 37°06' E 024°58'7 6.0
2015-Mar-01 06:27N 37°09' E 025°06'1614.8
2015-Mar-01 05:22N 37°24' E 024°59'3 3.6
2015-Mar-01 04:33N 37°27' E 024°57'0 0.0
2015-Mar-01 03:30N 37°27' E 024°57'0 0.0
2015-Mar-01 02:28N 37°27' E 024°57'0 0.0
2015-Mar-01 01:33N 37°27' E 024°57'0 0.0
2015-Mar-01 00:28N 37°27' E 024°57'0 0.0
2015-Feb-28 23:31N 37°27' E 024°57'0 0.0
2015-Feb-28 22:33N 37°27' E 024°57'0 0.0
2015-Feb-28 21:33N 37°27' E 024°57'0 0.0
2015-Feb-28 20:33N 37°27' E 024°57'0 0.0
2015-Feb-28 19:33N 37°27' E 024°57'0 0.0
2015-Feb-28 18:33N 37°27' E 024°57'0 0.0
2015-Feb-28 17:32N 37°27' E 024°57'0 0.0
2015-Feb-28 16:33N 37°27' E 024°57'0 0.0
2015-Feb-28 15:33N 37°27' E 024°57'1511.3
2015-Feb-28 14:15N 37°13' E 025°04'8 7.7
2015-Feb-28 13:16N 37°06' E 025°08'913.1
2015-Feb-28 12:33N 37°09' E 025°19'8 7.6
2015-Feb-28 11:34N 37°01' E 025°18'4 0.2
2015-Feb-27 14:33N 37°05' E 025°19'6 6.2
2015-Feb-27 13:33N 37°10' E 025°15'7 6.6
2015-Feb-27 12:29N 37°07' E 025°07'1313.9
2015-Feb-27 11:33N 37°19' E 025°01'9 9.1
2015-Feb-27 10:32N 37°28' E 024°57'40 8.1
2015-Feb-27 05:33N 37°38' E 024°08'35 2.0
2015-Feb-26 11:33N 37°31' E 024°52'6 5.6
2015-Feb-26 10:29N 37°26' E 024°57'8 8.8
2015-Feb-26 09:33N 37°19' E 024°52'1 0.0
2015-Feb-25 13:33N 37°19' E 024°51'9 8.6
2015-Feb-25 12:32N 37°27' E 024°57'0 0.0
2015-Feb-25 11:33N 37°27' E 024°57'3 3.0
2015-Feb-25 10:33N 37°28' E 024°60'7 7.2
2015-Feb-25 09:33N 37°33' E 025°06'10 3.0
2015-Feb-25 06:19N 37°39' E 024°57'1215.1
2015-Feb-25 05:33N 37°32' E 025°09'1111.1
2015-Feb-25 04:33N 37°27' E 024°57'0 0.0
2015-Feb-25 03:32N 37°27' E 024°57'0 0.0
2015-Feb-25 02:32N 37°27' E 024°57'0 0.0
2015-Feb-25 01:33N 37°27' E 024°57'0 0.0
2015-Feb-25 00:31N 37°27' E 024°57'0 0.0
2015-Feb-24 23:33N 37°27' E 024°57'1611.0
2015-Feb-24 22:06N 37°12' E 025°05'6 6.9
2015-Feb-24 21:11N 37°06' E 025°07'914.7
2015-Feb-24 20:32N 37°06' E 024°55'2 0.2
2015-Feb-24 07:34N 37°06' E 024°57'7 7.1
2015-Feb-24 06:33N 37°08' E 025°06'1514.9
2015-Feb-24 05:34N 37°22' E 024°60'6 5.6
2015-Feb-24 04:33N 37°27' E 024°57'0 0.0
2015-Feb-24 03:32N 37°27' E 024°57'0 0.0
2015-Feb-24 02:32N 37°27' E 024°57'0 0.0
2015-Feb-24 01:32N 37°27' E 024°57'0 0.0
2015-Feb-24 00:32N 37°27' E 024°57'0 0.0
2015-Feb-23 23:31N 37°27' E 024°57'0 0.0
2015-Feb-23 22:30N 37°27' E 024°57'0 0.0
2015-Feb-23 21:33N 37°27' E 024°57'5 4.4
2015-Feb-23 20:19N 37°30' E 024°51'36 7.3
2015-Feb-23 15:22N 37°38' E 024°07'1 0.2
2015-Feb-23 10:26N 37°38' E 024°08'8 5.9
2015-Feb-23 09:05N 37°33' E 024°16'22 7.9
2015-Feb-23 06:14N 37°29' E 024°44'1113.5
2015-Feb-23 05:26N 37°29' E 024°57'3 3.1
2015-Feb-23 04:32N 37°27' E 024°57'0 0.0
2015-Feb-23 03:33N 37°27' E 024°57'0 0.0
2015-Feb-23 02:33N 37°27' E 024°57'0 0.0
2015-Feb-23 01:31N 37°27' E 024°57'0 0.0
2015-Feb-23 00:33N 37°27' E 024°57'0 0.0
2015-Feb-22 23:33N 37°27' E 024°57'0 0.0
2015-Feb-22 22:33N 37°27' E 024°57'0 0.0
2015-Feb-22 21:33N 37°27' E 024°57'0 0.0
2015-Feb-22 20:32N 37°27' E 024°57'0 0.0
2015-Feb-22 19:32N 37°27' E 024°57'1612.1
2015-Feb-22 18:15N 37°12' E 025°05'810.7
2015-Feb-22 17:30N 37°05' E 025°09'2013.9
2015-Feb-22 16:05N 37°06' E 024°44'11 1.3
2015-Feb-22 07:34N 37°06' E 024°58'7 6.7
2015-Feb-22 06:29N 37°09' E 025°06'1415.0
2015-Feb-22 05:33N 37°22' E 024°60'5 5.4
2015-Feb-22 04:33N 37°27' E 024°57'0 0.0
2015-Feb-22 03:32N 37°27' E 024°57'0 0.0
2015-Feb-22 02:33N 37°27' E 024°57'0 0.0
2015-Feb-22 01:29N 37°27' E 024°57'0 0.0
2015-Feb-22 00:33N 37°27' E 024°57'0 0.0
2015-Feb-21 23:32N 37°27' E 024°57'0 0.0
2015-Feb-21 22:27N 37°27' E 024°57'0 0.0
2015-Feb-21 21:24N 37°27' E 024°57'0 0.0
2015-Feb-21 20:33N 37°27' E 024°57'0 0.0
2015-Feb-21 19:32N 37°27' E 024°57'0 0.0
2015-Feb-21 18:33N 37°27' E 024°57'0 0.0
2015-Feb-21 17:26N 37°27' E 024°57'0 0.0
2015-Feb-21 16:33N 37°27' E 024°57'0 0.0
2015-Feb-21 15:33N 37°27' E 024°57'0 0.0
2015-Feb-21 14:32N 37°27' E 024°57'1813.3
2015-Feb-21 13:12N 37°10' E 025°05'4 5.8
2015-Feb-21 12:26N 37°06' E 025°08'1112.3
2015-Feb-21 11:33N 37°07' E 025°21'8 7.7
2015-Feb-21 10:33N 37°00' E 025°18'  

Dump ship's entire track history